createdAt,value
2018-09-10T00:00:11.240Z,76.5
2018-09-10T00:01:11.914Z,76.2
2018-09-10T00:02:12.591Z,75.9
2018-09-10T00:03:13.306Z,75.6
2018-09-10T00:04:13.980Z,75.5
2018-09-10T00:05:14.658Z,74.9
2018-09-10T00:06:15.374Z,75.1
2018-09-10T00:07:16.048Z,75.2
2018-09-10T00:08:16.721Z,75.1
2018-09-10T00:09:17.397Z,75.4
2018-09-10T00:10:18.070Z,74.7
2018-09-10T00:11:18.803Z,74.5
2018-09-10T00:12:19.472Z,74.7
2018-09-10T00:13:20.151Z,74.6
2018-09-10T00:14:20.819Z,74.5
2018-09-10T00:15:21.495Z,74.8
2018-09-10T00:16:22.166Z,74.7
2018-09-10T00:17:22.841Z,74.7
2018-09-10T00:18:23.514Z,74.6
2018-09-10T00:19:24.189Z,74.4
2018-09-10T00:20:24.865Z,74.9
2018-09-10T00:21:25.586Z,74.5
2018-09-10T00:22:26.302Z,74.6
2018-09-10T00:23:26.975Z,74.8
2018-09-10T00:24:27.650Z,75.4
2018-09-10T00:25:28.326Z,75.1
2018-09-10T00:26:28.998Z,75.4
2018-09-10T00:27:29.672Z,74.8
2018-09-10T00:28:30.344Z,75.0
2018-09-10T00:29:31.019Z,74.8
2018-09-10T00:30:31.693Z,75.0
2018-09-10T00:31:32.369Z,74.8
2018-09-10T00:32:33.041Z,75.0
2018-09-10T00:33:33.715Z,74.9
2018-09-10T00:34:34.390Z,75.0
2018-09-10T00:35:35.067Z,74.8
2018-09-10T00:36:35.737Z,75.0
2018-09-10T00:37:36.412Z,75.8
2018-09-10T00:38:37.086Z,75.4
2018-09-10T00:39:37.762Z,75.5
2018-09-10T00:40:38.435Z,75.5
2018-09-10T00:41:39.110Z,75.4
2018-09-10T00:42:39.783Z,75.6
2018-09-10T00:43:40.458Z,75.5
2018-09-10T00:44:41.132Z,75.3
2018-09-10T00:45:41.810Z,75.8
2018-09-10T00:46:42.524Z,75.8
2018-09-10T00:47:43.199Z,76.2
2018-09-10T00:48:43.872Z,75.9
2018-09-10T00:49:44.589Z,75.9
2018-09-10T00:50:45.313Z,76.0
2018-09-10T00:51:45.988Z,75.8
2018-09-10T00:52:46.663Z,75.9
2018-09-10T00:53:47.379Z,76.4
2018-09-10T00:54:48.057Z,75.8
2018-09-10T00:55:48.823Z,76.5
2018-09-10T00:56:49.497Z,76.5
2018-09-10T00:57:50.171Z,76.3
2018-09-10T00:58:50.845Z,76.4
2018-09-10T00:59:51.519Z,76.4
2018-09-10T01:00:52.194Z,76.3
2018-09-10T01:01:52.867Z,76.3
2018-09-10T01:02:53.545Z,76.1
2018-09-10T01:03:54.304Z,76.7
2018-09-10T01:04:54.930Z,76.3
2018-09-10T01:05:55.602Z,76.2
2018-09-10T01:06:56.327Z,76.4
2018-09-10T01:07:57.043Z,75.9
2018-09-10T01:08:57.720Z,76.2
2018-09-10T01:09:58.391Z,76.3
2018-09-10T01:10:59.064Z,76.5
2018-09-10T01:11:59.740Z,76.4
2018-09-10T01:13:00.416Z,76.3
2018-09-10T01:14:01.131Z,76.2
2018-09-10T01:15:01.806Z,76.6
2018-09-10T01:16:02.480Z,76.0
2018-09-10T01:17:03.158Z,76.6
2018-09-10T01:18:03.829Z,76.4
2018-09-10T01:19:04.501Z,76.5
2018-09-10T01:20:05.177Z,76.3
2018-09-10T01:21:05.852Z,76.3
2018-09-10T01:22:06.567Z,76.4
2018-09-10T01:23:07.240Z,76.4
2018-09-10T01:24:07.914Z,76.2
2018-09-10T01:25:08.588Z,76.3
2018-09-10T01:26:09.262Z,76.4
2018-09-10T01:27:09.954Z,76.5
2018-09-10T01:28:10.609Z,76.0
2018-09-10T01:29:11.284Z,76.5
2018-09-10T01:30:11.958Z,76.4
2018-09-10T01:31:12.632Z,76.3
2018-09-10T01:32:13.308Z,76.3
2018-09-10T01:33:14.024Z,76.4
2018-09-10T01:34:14.747Z,76.7
2018-09-10T01:35:15.423Z,76.6
2018-09-10T01:36:16.094Z,76.9
2018-09-10T01:37:16.776Z,76.9
2018-09-10T01:38:17.444Z,77.0
2018-09-10T01:39:18.116Z,77.4
2018-09-10T01:40:18.790Z,77.2
2018-09-10T01:41:19.466Z,77.4
2018-09-10T01:42:20.138Z,77.5
2018-09-10T01:43:20.813Z,77.9
2018-09-10T01:44:21.485Z,77.9
2018-09-10T01:45:22.161Z,77.7
2018-09-10T01:46:22.836Z,78.5
2018-09-10T01:47:23.510Z,78.5
2018-09-10T01:48:24.183Z,78.4
2018-09-10T01:49:24.856Z,78.8
2018-09-10T01:50:25.532Z,78.7
2018-09-10T01:51:26.249Z,78.4
2018-09-10T01:52:26.922Z,78.5
2018-09-10T01:53:27.595Z,78.7
2018-09-10T01:54:28.276Z,78.3
2018-09-10T01:55:28.989Z,78.3
2018-09-10T01:56:29.662Z,78.3
2018-09-10T01:57:30.335Z,78.5
2018-09-10T01:58:31.011Z,78.2
2018-09-10T01:59:31.684Z,78.2
2018-09-10T02:00:32.358Z,78.2
2018-09-10T02:01:33.030Z,78.6
2018-09-10T02:02:33.706Z,78.5
2018-09-10T02:03:34.379Z,78.3
2018-09-10T02:04:35.053Z,78.5
2018-09-10T02:05:35.726Z,78.7
2018-09-10T02:06:36.400Z,78.7
2018-09-10T02:07:37.074Z,78.5
2018-09-10T02:08:37.748Z,78.0
2018-09-10T02:09:38.421Z,78.3
2018-09-10T02:10:39.095Z,78.1
2018-09-10T02:11:39.770Z,77.7
2018-09-10T02:12:40.443Z,77.9
2018-09-10T02:13:41.117Z,78.1
2018-09-10T02:14:41.791Z,77.8
2018-09-10T02:15:42.467Z,77.9
2018-09-10T02:16:43.139Z,77.9
2018-09-10T02:17:43.812Z,77.9
2018-09-10T02:18:44.494Z,78.1
2018-09-10T02:19:45.159Z,78.1
2018-09-10T02:20:45.833Z,78.1
2018-09-10T02:21:46.508Z,77.7
2018-09-10T02:22:47.181Z,77.8
2018-09-10T02:23:47.853Z,78.2
2018-09-10T02:24:48.529Z,78.6
2018-09-10T02:25:49.201Z,78.3
2018-09-10T02:26:49.875Z,78.5
2018-09-10T02:27:50.578Z,78.7
2018-09-10T02:28:51.260Z,78.7
2018-09-10T02:29:51.934Z,78.7
2018-09-10T02:30:52.607Z,78.3
2018-09-10T02:31:53.284Z,78.7
2018-09-10T02:32:53.957Z,78.6
2018-09-10T02:33:54.632Z,78.7
2018-09-10T02:34:55.305Z,78.5
2018-09-10T02:35:55.978Z,78.8
2018-09-10T02:36:56.650Z,78.6
2018-09-10T02:37:57.326Z,79.0
2018-09-10T02:38:57.998Z,78.8
2018-09-10T02:39:58.673Z,78.7
2018-09-10T02:40:59.346Z,78.8
2018-09-10T02:42:00.022Z,78.9
2018-09-10T02:43:00.695Z,79.3
2018-09-10T02:44:01.366Z,79.1
2018-09-10T02:45:02.040Z,78.9
2018-09-10T02:46:02.714Z,78.8
2018-09-10T02:47:03.391Z,78.9
2018-09-10T02:48:04.060Z,78.5
2018-09-10T02:49:04.737Z,79.3
2018-09-10T02:50:05.406Z,79.0
2018-09-10T02:51:06.080Z,79.3
2018-09-10T02:52:06.797Z,79.1
2018-09-10T02:53:07.472Z,79.6
2018-09-10T02:54:08.146Z,79.8
2018-09-10T02:55:08.876Z,80.1
2018-09-10T02:56:09.493Z,79.7
2018-09-10T02:57:10.165Z,79.9
2018-09-10T02:58:10.843Z,79.8
2018-09-10T02:59:11.556Z,80.0
2018-09-10T03:00:12.231Z,80.3
2018-09-10T03:01:12.952Z,80.4
2018-09-10T03:02:13.621Z,80.5
2018-09-10T03:03:14.294Z,80.4
2018-09-10T03:04:14.970Z,80.2
2018-09-10T03:05:15.685Z,79.8
2018-09-10T03:06:16.359Z,79.8
2018-09-10T03:07:17.034Z,80.0
2018-09-10T03:08:17.707Z,80.3
2018-09-10T03:09:18.380Z,80.5
2018-09-10T03:10:19.052Z,80.8
2018-09-10T03:11:19.725Z,80.7
2018-09-10T03:12:20.399Z,80.9
2018-09-10T03:13:21.074Z,80.5
2018-09-10T03:14:21.747Z,80.9
2018-09-10T03:15:22.420Z,81.0
2018-09-10T03:16:23.131Z,80.9
2018-09-10T03:17:23.810Z,80.4
2018-09-10T03:18:24.482Z,80.4
2018-09-10T03:19:25.155Z,80.3
2018-09-10T03:20:25.829Z,80.3
2018-09-10T03:21:26.502Z,80.4
2018-09-10T03:22:27.182Z,80.4
2018-09-10T03:23:27.850Z,80.5
2018-09-10T03:24:28.523Z,80.3
2018-09-10T03:25:29.197Z,80.3
2018-09-10T03:26:29.875Z,80.1
2018-09-10T03:27:30.544Z,80.3
2018-09-10T03:28:31.217Z,79.6
2018-09-10T03:29:31.890Z,79.9
2018-09-10T03:30:32.565Z,79.7
2018-09-10T03:31:33.248Z,79.6
2018-09-10T03:32:33.912Z,80.1
2018-09-10T03:33:34.597Z,80.0
2018-09-10T03:34:35.258Z,79.7
2018-09-10T03:35:35.932Z,79.8
2018-09-10T03:36:36.603Z,79.8
2018-09-10T03:37:37.278Z,79.8
2018-09-10T03:38:37.950Z,80.0
2018-09-10T03:39:38.630Z,80.3
2018-09-10T03:40:39.300Z,80.5
2018-09-10T03:41:39.974Z,80.4
2018-09-10T03:42:40.650Z,80.5
2018-09-10T03:43:41.319Z,80.5
2018-09-10T03:44:41.993Z,80.4
2018-09-10T03:45:42.665Z,80.8
2018-09-10T03:46:43.339Z,80.6
2018-09-10T03:47:44.011Z,80.8
2018-09-10T03:48:44.685Z,81.1
2018-09-10T03:49:45.357Z,81.0
2018-09-10T03:50:46.035Z,80.9
2018-09-10T03:51:46.704Z,81.3
2018-09-10T03:52:47.377Z,80.8
2018-09-10T03:53:48.055Z,81.4
2018-09-10T03:54:48.723Z,81.5
2018-09-10T03:55:49.398Z,81.7
2018-09-10T03:56:50.071Z,81.7
2018-09-10T03:57:50.744Z,81.7
2018-09-10T03:58:51.417Z,81.5
2018-09-10T03:59:52.091Z,81.4
2018-09-10T04:00:52.764Z,82.0
2018-09-10T04:01:53.438Z,81.9
2018-09-10T04:02:54.135Z,81.9
2018-09-10T04:03:54.786Z,81.8
2018-09-10T04:04:55.510Z,81.8
2018-09-10T04:05:56.183Z,81.9
2018-09-10T04:06:56.856Z,82.0
2018-09-10T04:07:57.529Z,82.0
2018-09-10T04:08:58.245Z,82.1
2018-09-10T04:09:58.920Z,82.6
2018-09-10T04:10:59.592Z,82.2
2018-09-10T04:12:00.268Z,82.0
2018-09-10T04:13:00.937Z,82.2
2018-09-10T04:14:01.611Z,82.7
2018-09-10T04:15:02.284Z,82.4
2018-09-10T04:16:02.961Z,82.8
2018-09-10T04:17:03.744Z,82.5
2018-09-10T04:18:04.348Z,82.5
2018-09-10T04:19:05.067Z,82.7
2018-09-10T04:20:05.741Z,82.7
2018-09-10T04:21:06.417Z,82.4
2018-09-10T04:22:07.131Z,82.6
2018-09-10T04:23:07.804Z,82.6
2018-09-10T04:24:08.479Z,82.3
2018-09-10T04:25:09.196Z,82.3
2018-09-10T04:26:09.987Z,82.6
2018-09-10T04:27:10.589Z,82.7
2018-09-10T04:28:11.263Z,82.8
2018-09-10T04:29:11.936Z,82.7
2018-09-10T04:30:12.688Z,82.6
2018-09-10T04:31:13.323Z,82.5
2018-09-10T04:32:13.996Z,83.0
2018-09-10T04:33:14.672Z,83.2
2018-09-10T04:34:15.348Z,83.5
2018-09-10T04:35:16.022Z,83.1
2018-09-10T04:36:16.731Z,83.2
2018-09-10T04:37:17.369Z,83.1
2018-09-10T04:38:18.042Z,83.8
2018-09-10T04:39:18.717Z,84.0
2018-09-10T04:40:19.390Z,83.9
2018-09-10T04:41:20.066Z,83.5
2018-09-10T04:42:20.814Z,84.0
2018-09-10T04:43:21.417Z,83.7
2018-09-10T04:44:22.128Z,83.9
2018-09-10T04:45:22.803Z,84.1
2018-09-10T04:46:23.499Z,84.2
2018-09-10T04:47:24.197Z,84.2
2018-09-10T04:48:24.872Z,84.2
2018-09-10T04:49:25.546Z,84.4
2018-09-10T04:50:26.223Z,84.1
2018-09-10T04:51:26.897Z,84.5
2018-09-10T04:52:27.573Z,84.4
2018-09-10T04:53:28.248Z,84.2
2018-09-10T04:54:28.926Z,84.3
2018-09-10T04:55:29.600Z,84.7
2018-09-10T04:56:30.274Z,84.6
2018-09-10T04:57:30.951Z,84.4
2018-09-10T04:58:31.626Z,85.2
2018-09-10T04:59:32.300Z,84.9
2018-09-10T05:00:32.975Z,84.8
2018-09-10T05:01:33.653Z,85.0
2018-09-10T05:02:34.329Z,84.9
2018-09-10T05:03:35.005Z,84.9
2018-09-10T05:04:35.803Z,84.6
2018-09-10T05:05:36.357Z,84.6
2018-09-10T05:06:37.036Z,85.2
2018-09-10T05:07:37.710Z,85.6
2018-09-10T05:08:38.385Z,85.3
2018-09-10T05:09:39.063Z,85.5
2018-09-10T05:10:39.740Z,85.4
2018-09-10T05:11:40.416Z,85.5
2018-09-10T05:12:41.131Z,85.2
2018-09-10T05:13:41.812Z,85.4
2018-09-10T05:14:42.492Z,85.1
2018-09-10T05:15:43.166Z,85.2
2018-09-10T05:16:43.842Z,85.1
2018-09-10T05:17:44.519Z,85.1
2018-09-10T05:18:45.195Z,85.2
2018-09-10T05:19:45.871Z,85.3
2018-09-10T05:20:46.549Z,85.3
2018-09-10T05:21:47.252Z,85.2
2018-09-10T05:22:47.900Z,84.8
2018-09-10T05:23:48.621Z,84.8
2018-09-10T05:24:49.297Z,85.0
2018-09-10T05:25:49.976Z,84.9
2018-09-10T05:26:50.650Z,84.9
2018-09-10T05:27:51.327Z,85.0
2018-09-10T05:28:52.004Z,84.8
2018-09-10T05:29:52.680Z,84.5
2018-09-10T05:30:53.358Z,85.0
2018-09-10T05:31:54.037Z,84.7
2018-09-10T05:32:54.756Z,84.8
2018-09-10T05:33:55.433Z,84.8
2018-09-10T05:34:56.110Z,84.7
2018-09-10T05:35:56.788Z,84.7
2018-09-10T05:36:57.465Z,84.7
2018-09-10T05:37:58.142Z,85.0
2018-09-10T05:38:58.818Z,84.8
2018-09-10T05:39:59.497Z,85.0
2018-09-10T05:41:00.174Z,85.2
2018-09-10T05:42:00.851Z,84.6
2018-09-10T05:43:01.529Z,84.6
2018-09-10T05:44:02.209Z,84.6
2018-09-10T05:45:02.883Z,84.3
2018-09-10T05:46:03.561Z,84.4
2018-09-10T05:47:04.245Z,84.3
2018-09-10T05:48:04.997Z,84.2
2018-09-10T05:49:05.682Z,84.2
2018-09-10T05:50:06.360Z,84.1
2018-09-10T05:51:07.038Z,84.1
2018-09-10T05:52:07.715Z,83.8
2018-09-10T05:53:08.399Z,83.6
2018-09-10T05:54:09.113Z,83.6
2018-09-10T05:55:09.790Z,83.7
2018-09-10T05:56:10.468Z,83.5
2018-09-10T05:57:11.145Z,83.3
2018-09-10T05:58:11.823Z,83.1
2018-09-10T05:59:12.501Z,83.5
2018-09-10T06:00:13.178Z,83.2
2018-09-10T06:01:13.855Z,82.9
2018-09-10T06:02:14.533Z,83.0
2018-09-10T06:03:15.210Z,82.8
2018-09-10T06:04:15.888Z,82.4
2018-09-10T06:05:16.567Z,82.5
2018-09-10T06:06:17.244Z,82.0
2018-09-10T06:07:17.927Z,82.4
2018-09-10T06:08:18.645Z,82.1
2018-09-10T06:09:19.322Z,82.0
2018-09-10T06:10:20.033Z,81.8
2018-09-10T06:11:20.681Z,81.5
2018-09-10T06:12:21.404Z,82.0
2018-09-10T06:13:22.078Z,81.5
2018-09-10T06:14:22.756Z,81.5
2018-09-10T06:15:23.433Z,81.2
2018-09-10T06:16:24.153Z,80.8
2018-09-10T06:17:24.832Z,80.9
2018-09-10T06:18:25.512Z,80.5
2018-09-10T06:19:26.187Z,80.5
2018-09-10T06:20:26.867Z,80.5
2018-09-10T06:21:27.588Z,80.5
2018-09-10T06:22:28.264Z,80.7
2018-09-10T06:23:28.943Z,80.6
2018-09-10T06:24:29.623Z,80.4
2018-09-10T06:25:30.298Z,80.9
2018-09-10T06:26:31.020Z,80.7
2018-09-10T06:27:31.699Z,80.6
2018-09-10T06:28:32.376Z,80.6
2018-09-10T06:29:33.053Z,80.7
2018-09-10T06:30:33.733Z,80.6
2018-09-10T06:31:34.410Z,81.0
2018-09-10T06:32:35.089Z,80.9
2018-09-10T06:33:35.767Z,80.8
2018-09-10T06:34:36.444Z,80.4
2018-09-10T06:35:37.182Z,80.3
2018-09-10T06:36:37.836Z,80.2
2018-09-10T06:37:38.516Z,80.1
2018-09-10T06:38:39.239Z,80.5
2018-09-10T06:39:39.915Z,80.0
2018-09-10T06:40:40.595Z,80.6
2018-09-10T06:41:41.274Z,80.1
2018-09-10T06:42:41.955Z,80.1
2018-09-10T06:43:42.632Z,80.4
2018-09-10T06:44:43.311Z,79.7
2018-09-10T06:45:43.988Z,79.4
2018-09-10T06:46:44.667Z,79.3
2018-09-10T06:47:45.378Z,79.5
2018-09-10T06:48:46.024Z,79.1
2018-09-10T06:49:46.705Z,79.0
2018-09-10T06:50:47.381Z,78.8
2018-09-10T06:51:48.058Z,78.6
2018-09-10T06:52:48.738Z,78.6
2018-09-10T06:53:49.429Z,78.9
2018-09-10T06:54:50.140Z,78.6
2018-09-10T06:55:50.818Z,78.5
2018-09-10T06:56:51.497Z,78.5
2018-09-10T06:57:52.174Z,77.8
2018-09-10T06:58:52.856Z,77.6
2018-09-10T06:59:53.536Z,77.3
2018-09-10T07:00:54.215Z,76.9
2018-09-10T07:01:54.895Z,76.4
2018-09-10T07:02:55.575Z,76.1
2018-09-10T07:03:56.254Z,76.1
2018-09-10T07:04:56.933Z,76.3
2018-09-10T07:05:57.612Z,75.9
2018-09-10T07:06:58.292Z,74.6
2018-09-10T07:07:58.972Z,73.5
2018-09-10T07:08:59.651Z,72.5
2018-09-10T07:10:00.334Z,71.8
2018-09-10T07:11:01.053Z,71.4
2018-09-10T07:12:01.739Z,69.7
2018-09-10T07:13:02.459Z,69.0
2018-09-10T07:14:03.104Z,68.0
2018-09-10T07:15:03.817Z,64.9
2018-09-10T07:16:04.509Z,62.3
2018-09-10T07:17:05.191Z,59.9
2018-09-10T07:18:05.875Z,56.7
2018-09-10T07:19:06.670Z,53.3
2018-09-10T07:20:07.285Z,50.9
2018-09-10T07:21:07.967Z,49.7
2018-09-10T07:22:08.694Z,47.6
2018-09-10T07:23:09.380Z,46.0
2018-09-10T07:24:10.062Z,44.8
2018-09-10T07:25:10.745Z,43.1
2018-09-10T07:26:11.429Z,42.4
2018-09-10T07:27:12.113Z,41.4
2018-09-10T07:28:12.799Z,39.6
2018-09-10T07:29:13.526Z,39.0
2018-09-10T07:30:14.256Z,38.4
2018-09-10T07:31:14.932Z,38.4
2018-09-10T07:32:15.616Z,38.3
2018-09-10T07:33:16.302Z,37.9
2018-09-10T07:34:16.987Z,38.5
2018-09-10T07:35:17.673Z,38.6
2018-09-10T07:36:18.362Z,38.2
2018-09-10T07:37:19.088Z,38.3
2018-09-10T07:38:19.774Z,38.4
2018-09-10T07:39:20.458Z,39.1
2018-09-10T07:40:21.144Z,38.7
2018-09-10T07:41:21.867Z,38.8
2018-09-10T07:42:22.564Z,38.9
2018-09-10T07:43:23.283Z,38.7
2018-09-10T07:44:23.981Z,39.0
2018-09-10T07:45:24.666Z,39.7
2018-09-10T07:46:25.352Z,40.1
2018-09-10T07:47:26.039Z,40.5
2018-09-10T07:48:26.723Z,40.6
2018-09-10T07:49:27.410Z,40.9
2018-09-10T07:50:28.098Z,40.3
2018-09-10T07:51:28.785Z,40.0
2018-09-10T07:52:29.476Z,39.7
2018-09-10T07:53:30.203Z,39.3
2018-09-10T07:54:30.941Z,38.9
2018-09-10T07:55:31.575Z,38.3
2018-09-10T07:56:32.260Z,37.7
2018-09-10T07:57:32.948Z,37.6
2018-09-10T07:58:33.679Z,37.4
2018-09-10T07:59:34.365Z,37.3
2018-09-10T08:00:35.051Z,37.1
2018-09-10T08:01:35.739Z,37.4
2018-09-10T08:02:36.424Z,37.3
2018-09-10T08:03:37.114Z,37.4
2018-09-10T08:04:37.843Z,37.1
2018-09-10T08:05:38.532Z,37.0
2018-09-10T08:06:39.217Z,36.9
2018-09-10T08:07:39.904Z,37.0
2018-09-10T08:08:40.592Z,37.4
2018-09-10T08:09:41.320Z,37.5
2018-09-10T08:10:42.003Z,36.4
2018-09-10T08:11:42.689Z,36.3
2018-09-10T08:12:43.376Z,37.1
2018-09-10T08:13:44.065Z,37.1
2018-09-10T08:14:44.751Z,37.1
2018-09-10T08:15:45.439Z,37.1
2018-09-10T08:16:46.125Z,37.1
2018-09-10T08:17:46.812Z,37.3
2018-09-10T08:18:47.500Z,37.1
2018-09-10T08:19:48.190Z,37.5
2018-09-10T08:20:48.873Z,38.2
2018-09-10T08:21:49.561Z,38.3
2018-09-10T08:22:50.248Z,38.2
2018-09-10T08:23:50.937Z,38.3
2018-09-10T08:24:51.622Z,38.7
2018-09-10T08:25:52.310Z,38.6
2018-09-10T08:26:53.040Z,38.8
2018-09-10T08:27:53.729Z,38.8
2018-09-10T08:28:54.460Z,38.6
2018-09-10T08:29:55.148Z,38.2
2018-09-10T08:30:55.878Z,37.7
2018-09-10T08:31:56.565Z,37.8
2018-09-10T08:32:57.252Z,37.6
2018-09-10T08:33:57.943Z,37.6
2018-09-10T08:34:58.627Z,37.0
2018-09-10T08:35:59.314Z,36.8
2018-09-10T08:37:00.002Z,37.1
2018-09-10T08:38:00.691Z,36.7
2018-09-10T08:39:01.378Z,36.3
2018-09-10T08:40:02.065Z,35.5
2018-09-10T08:41:02.752Z,35.7
2018-09-10T08:42:03.459Z,35.6
2018-09-10T08:43:04.189Z,35.6
2018-09-10T08:44:04.902Z,35.5
2018-09-10T08:45:05.588Z,35.3
2018-09-10T08:46:06.276Z,35.1
2018-09-10T08:47:07.008Z,35.0
2018-09-10T08:48:07.756Z,34.1
2018-09-10T08:49:08.436Z,34.0
2018-09-10T08:50:09.156Z,34.0
2018-09-10T08:51:09.843Z,33.9
2018-09-10T08:52:10.529Z,33.9
2018-09-10T08:53:11.217Z,32.6
2018-09-10T08:54:11.947Z,32.4
2018-09-10T08:55:12.666Z,32.4
2018-09-10T08:56:13.544Z,31.8
2018-09-10T08:57:13.968Z,31.2
2018-09-10T08:58:14.652Z,30.8
2018-09-10T08:59:15.340Z,30.7
2018-09-10T09:00:16.079Z,30.7
2018-09-10T09:01:16.717Z,30.3
2018-09-10T09:02:17.404Z,30.6
2018-09-10T09:03:18.094Z,30.6
2018-09-10T09:04:18.781Z,29.7
2018-09-10T09:05:19.469Z,29.5
2018-09-10T09:06:20.172Z,29.6
2018-09-10T09:07:20.882Z,29.5
2018-09-10T09:08:21.569Z,29.2
2018-09-10T09:09:22.259Z,29.3
2018-09-10T09:10:22.948Z,29.7
2018-09-10T09:11:23.634Z,29.6
2018-09-10T09:12:24.325Z,29.3
2018-09-10T09:13:25.015Z,29.3
2018-09-10T09:14:25.703Z,29.3
2018-09-10T09:15:26.391Z,29.5
2018-09-10T09:16:27.079Z,29.5
2018-09-10T09:17:27.829Z,29.6
2018-09-10T09:18:28.457Z,29.3
2018-09-10T09:19:29.184Z,29.5
2018-09-10T09:20:29.882Z,30.0
2018-09-10T09:21:30.608Z,30.3
2018-09-10T09:22:31.303Z,30.1
2018-09-10T09:23:31.997Z,30.7
2018-09-10T09:24:32.688Z,30.6
2018-09-10T09:25:33.415Z,30.2
2018-09-10T09:26:34.103Z,30.2
2018-09-10T09:27:34.791Z,30.1
2018-09-10T09:28:35.489Z,30.1
2018-09-10T09:29:36.272Z,29.4
2018-09-10T09:30:36.904Z,29.6
2018-09-10T09:31:37.594Z,29.7
2018-09-10T09:32:38.284Z,30.1
2018-09-10T09:33:38.972Z,30.6
2018-09-10T09:34:39.661Z,31.0
2018-09-10T09:35:40.350Z,31.1
2018-09-10T09:36:41.038Z,30.4
2018-09-10T09:37:41.727Z,30.3
2018-09-10T09:38:42.417Z,30.9
2018-09-10T09:39:43.107Z,31.0
2018-09-10T09:40:43.796Z,31.4
2018-09-10T09:41:44.483Z,31.1
2018-09-10T09:42:45.173Z,31.7
2018-09-10T09:43:45.863Z,31.7
2018-09-10T09:44:46.552Z,32.0
2018-09-10T09:45:47.241Z,32.4
2018-09-10T09:46:47.929Z,32.4
2018-09-10T09:47:48.644Z,32.3
2018-09-10T09:48:49.306Z,32.4
2018-09-10T09:49:49.998Z,32.3
2018-09-10T09:50:50.687Z,32.0
2018-09-10T09:51:51.371Z,32.0
2018-09-10T09:52:52.064Z,31.8
2018-09-10T09:53:52.764Z,31.5
2018-09-10T09:54:53.438Z,31.8
2018-09-10T09:55:54.125Z,31.4
2018-09-10T09:56:54.815Z,31.0
2018-09-10T09:57:55.505Z,31.1
2018-09-10T09:58:56.193Z,30.9
2018-09-10T09:59:56.882Z,31.3
2018-09-10T10:00:57.572Z,31.4
2018-09-10T10:01:58.259Z,31.6
2018-09-10T10:02:58.948Z,31.8
2018-09-10T10:03:59.661Z,32.1
2018-09-10T10:05:00.325Z,31.2
2018-09-10T10:06:01.014Z,31.6
2018-09-10T10:07:01.701Z,31.6
2018-09-10T10:08:02.392Z,31.7
2018-09-10T10:09:03.081Z,31.8
2018-09-10T10:10:03.776Z,31.7
2018-09-10T10:11:04.467Z,31.9
2018-09-10T10:12:05.276Z,31.7
2018-09-10T10:13:05.877Z,31.5
2018-09-10T10:14:06.570Z,31.8
2018-09-10T10:15:07.300Z,31.8
2018-09-10T10:16:07.993Z,31.7
2018-09-10T10:17:08.715Z,31.8
2018-09-10T10:18:09.410Z,32.0
2018-09-10T10:19:10.101Z,31.6
2018-09-10T10:20:10.789Z,31.7
2018-09-10T10:21:11.534Z,31.7
2018-09-10T10:22:12.255Z,31.9
2018-09-10T10:23:12.944Z,32.2
2018-09-10T10:24:13.631Z,32.4
2018-09-10T10:25:14.320Z,32.2
2018-09-10T10:26:15.009Z,32.4
2018-09-10T10:27:15.743Z,35.1
2018-09-10T10:28:16.521Z,35.5
2018-09-10T10:29:17.119Z,35.5
2018-09-10T10:30:17.808Z,36.1
2018-09-10T10:31:18.498Z,36.2
2018-09-10T10:32:19.185Z,37.2
2018-09-10T10:33:19.873Z,37.8
2018-09-10T10:34:20.561Z,38.8
2018-09-10T10:35:21.249Z,39.6
2018-09-10T10:36:21.940Z,40.0
2018-09-10T10:37:22.669Z,40.5
2018-09-10T10:38:23.358Z,40.7
2018-09-10T10:39:24.056Z,41.0
2018-09-10T10:40:24.777Z,41.5
2018-09-10T10:41:25.468Z,41.0
2018-09-10T10:42:26.197Z,40.8
2018-09-10T10:43:26.929Z,40.9
2018-09-10T10:44:27.617Z,40.7
2018-09-10T10:45:28.302Z,40.0
2018-09-10T10:46:28.991Z,38.9
2018-09-10T10:47:29.680Z,39.0
2018-09-10T10:48:30.363Z,39.1
2018-09-10T10:49:31.052Z,38.3
2018-09-10T10:50:31.776Z,38.3
2018-09-10T10:51:32.469Z,38.4
2018-09-10T10:52:33.158Z,37.5
2018-09-10T10:53:33.859Z,37.8
2018-09-10T10:54:34.531Z,38.6
2018-09-10T10:55:35.219Z,39.0
2018-09-10T10:56:35.906Z,39.0
2018-09-10T10:57:36.595Z,39.5
2018-09-10T10:58:37.290Z,39.3
2018-09-10T10:59:38.012Z,39.3
2018-09-10T11:00:38.700Z,38.4
2018-09-10T11:01:39.389Z,38.7
2018-09-10T11:02:40.118Z,38.3
2018-09-10T11:03:40.806Z,38.9
2018-09-10T11:04:41.492Z,38.9
2018-09-10T11:05:42.179Z,39.6
2018-09-10T11:06:42.865Z,40.0
2018-09-10T11:07:43.550Z,40.2
2018-09-10T11:08:44.241Z,40.2
2018-09-10T11:09:44.930Z,39.6
2018-09-10T11:10:45.657Z,39.8
2018-09-10T11:11:46.345Z,39.0
2018-09-10T11:12:47.030Z,38.8
2018-09-10T11:13:47.716Z,38.4
2018-09-10T11:14:48.404Z,38.4
2018-09-10T11:15:49.090Z,37.2
2018-09-10T11:16:49.776Z,36.7
2018-09-10T11:17:50.462Z,36.1
2018-09-10T11:18:51.149Z,35.2
2018-09-10T11:19:51.836Z,33.7
2018-09-10T11:20:52.522Z,33.0
2018-09-10T11:21:53.208Z,31.8
2018-09-10T11:22:53.896Z,31.9
2018-09-10T11:23:54.628Z,31.6
2018-09-10T11:24:55.305Z,31.6
2018-09-10T11:25:55.993Z,31.7
2018-09-10T11:26:56.704Z,30.7
2018-09-10T11:27:57.428Z,30.9
2018-09-10T11:28:58.143Z,30.7
2018-09-10T11:29:58.830Z,30.5
2018-09-10T11:30:59.517Z,30.4
2018-09-10T11:32:00.206Z,30.5
2018-09-10T11:33:00.891Z,30.6
2018-09-10T11:34:01.580Z,30.6
2018-09-10T11:35:02.265Z,30.8
2018-09-10T11:36:02.950Z,30.3
2018-09-10T11:37:03.639Z,30.2
2018-09-10T11:38:04.325Z,30.4
2018-09-10T11:39:05.011Z,30.4
2018-09-10T11:40:05.698Z,30.9
2018-09-10T11:41:06.385Z,30.9
2018-09-10T11:42:07.074Z,30.7
2018-09-10T11:43:07.799Z,30.4
2018-09-10T11:44:08.493Z,30.8
2018-09-10T11:45:09.179Z,30.6
2018-09-10T11:46:09.909Z,30.4
2018-09-10T11:47:10.588Z,30.9
2018-09-10T11:48:11.274Z,30.9
2018-09-10T11:49:11.961Z,30.7
2018-09-10T11:50:12.647Z,31.2
2018-09-10T11:51:13.340Z,30.8
2018-09-10T11:52:14.021Z,31.4
2018-09-10T11:53:14.774Z,31.5
2018-09-10T11:54:15.486Z,31.7
2018-09-10T11:55:16.197Z,31.9
2018-09-10T11:56:16.904Z,31.7
2018-09-10T11:57:17.591Z,31.8
2018-09-10T11:58:18.323Z,32.1
2018-09-10T11:59:19.033Z,31.7
2018-09-10T12:00:19.749Z,31.7
2018-09-10T12:01:20.472Z,32.0
2018-09-10T12:02:21.159Z,32.1
2018-09-10T12:03:21.848Z,32.0
2018-09-10T12:04:22.533Z,32.1
2018-09-10T12:05:23.219Z,32.0
2018-09-10T12:06:23.988Z,32.5
2018-09-10T12:07:24.682Z,32.1
2018-09-10T12:08:25.373Z,32.3
2018-09-10T12:09:26.053Z,32.1
2018-09-10T12:10:26.764Z,32.3
2018-09-10T12:11:27.472Z,32.1
2018-09-10T12:12:28.203Z,31.9
2018-09-10T12:13:28.895Z,32.0
2018-09-10T12:14:29.588Z,31.4
2018-09-10T12:15:30.306Z,32.0
2018-09-10T12:16:31.001Z,31.7
2018-09-10T12:17:31.679Z,31.8
2018-09-10T12:18:32.416Z,31.9
2018-09-10T12:19:33.093Z,31.8
2018-09-10T12:20:33.864Z,32.0
2018-09-10T12:21:34.575Z,32.0
2018-09-10T12:22:35.274Z,31.7
2018-09-10T12:23:35.964Z,31.7
2018-09-10T12:24:36.645Z,31.5
2018-09-10T12:25:37.408Z,31.8
2018-09-10T12:26:38.132Z,31.9
2018-09-10T12:27:38.789Z,31.7
2018-09-10T12:28:39.518Z,32.0
2018-09-10T12:29:40.204Z,32.3
2018-09-10T12:30:40.916Z,32.2
2018-09-10T12:31:41.621Z,32.4
2018-09-10T12:32:42.307Z,32.4
2018-09-10T12:33:42.994Z,32.4
2018-09-10T12:34:43.692Z,32.5
2018-09-10T12:36:59.938Z,32.4
2018-09-10T12:38:00.689Z,32.8
2018-09-10T12:39:01.391Z,33.1
2018-09-10T12:40:02.110Z,33.1
2018-09-10T12:41:02.853Z,32.9
2018-09-10T12:42:03.607Z,33.2
2018-09-10T12:43:04.313Z,33.1
2018-09-10T12:44:05.104Z,32.9
2018-09-10T12:45:05.875Z,33.2
2018-09-10T12:46:06.620Z,33.1
2018-09-10T12:47:07.368Z,33.4
2018-09-10T12:48:08.023Z,33.5
2018-09-10T12:49:08.729Z,33.4
2018-09-10T12:50:09.426Z,33.1
2018-09-10T12:51:10.178Z,33.2
2018-09-10T12:52:10.878Z,33.2
2018-09-10T12:53:11.579Z,32.9
2018-09-10T12:54:12.283Z,32.9
2018-09-10T12:55:12.983Z,32.9
2018-09-10T12:56:13.746Z,33.1
2018-09-10T12:57:14.505Z,33.0
2018-09-10T12:58:15.254Z,33.1
2018-09-10T12:59:15.957Z,33.0
2018-09-10T13:00:16.659Z,33.1
2018-09-10T13:01:17.410Z,33.2
2018-09-10T13:02:18.110Z,32.7
2018-09-10T13:03:18.811Z,32.6
2018-09-10T13:04:19.615Z,33.0
2018-09-10T13:05:20.269Z,33.0
2018-09-10T13:06:21.078Z,33.1
2018-09-10T13:07:21.777Z,33.0
2018-09-10T13:08:22.532Z,33.0
2018-09-10T13:09:23.231Z,33.0
2018-09-10T13:10:23.935Z,33.1
2018-09-10T13:11:24.689Z,33.0
2018-09-10T13:12:25.387Z,33.0
2018-09-10T13:13:26.088Z,32.8
2018-09-10T13:14:26.789Z,32.5
2018-09-10T13:15:27.602Z,32.3
2018-09-10T13:16:28.356Z,32.5
2018-09-10T13:17:29.114Z,32.6
2018-09-10T13:18:29.815Z,32.7
2018-09-10T13:19:30.515Z,32.5
2018-09-10T13:20:31.267Z,32.6
2018-09-10T13:21:32.003Z,32.6
2018-09-10T13:22:32.724Z,33.0
2018-09-10T13:23:33.428Z,33.1
2018-09-10T13:24:34.128Z,32.6
2018-09-10T13:25:34.880Z,32.3
2018-09-10T13:26:35.585Z,32.5
2018-09-10T13:27:36.285Z,32.4
2018-09-10T13:28:37.053Z,32.5